sensor_id;sensor_type;location;lat;lon;timestamp;temperature;humidity
30174;DHT22;16985;50.814;8.530;2022-10-16T00:01:26;13.10;99.90
30174;DHT22;16985;50.814;8.530;2022-10-16T00:03:54;13.10;99.90
30174;DHT22;16985;50.814;8.530;2022-10-16T00:06:22;13.20;99.90
30174;DHT22;16985;50.814;8.530;2022-10-16T00:08:49;13.10;99.90
30174;DHT22;16985;50.814;8.530;2022-10-16T00:11:21;13.10;99.90
30174;DHT22;16985;50.814;8.530;2022-10-16T00:13:50;13.10;99.90
30174;DHT22;16985;50.814;8.530;2022-10-16T00:16:18;13.10;99.90
30174;DHT22;16985;50.814;8.530;2022-10-16T00:18:45;13.10;99.90
30174;DHT22;16985;50.814;8.530;2022-10-16T00:21:24;13.00;99.90
30174;DHT22;16985;50.814;8.530;2022-10-16T00:23:57;13.00;99.90
30174;DHT22;16985;50.814;8.530;2022-10-16T00:26:25;13.00;99.90
30174;DHT22;16985;50.814;8.530;2022-10-16T00:28:53;13.00;99.90
30174;DHT22;16985;50.814;8.530;2022-10-16T00:31:20;12.90;99.90
30174;DHT22;16985;50.814;8.530;2022-10-16T00:33:48;13.00;99.90
30174;DHT22;16985;50.814;8.530;2022-10-16T00:36:18;12.70;99.90
30174;DHT22;16985;50.814;8.530;2022-10-16T00:38:47;12.90;99.90
30174;DHT22;16985;50.814;8.530;2022-10-16T00:41:17;13.00;99.90
30174;DHT22;16985;50.814;8.530;2022-10-16T00:43:49;13.00;99.90
30174;DHT22;16985;50.814;8.530;2022-10-16T00:46:38;13.00;99.90
30174;DHT22;16985;50.814;8.530;2022-10-16T00:49:12;13.00;99.90
30174;DHT22;16985;50.814;8.530;2022-10-16T00:51:45;13.00;99.90
30174;DHT22;16985;50.814;8.530;2022-10-16T00:54:18;13.00;99.90
30174;DHT22;16985;50.814;8.530;2022-10-16T00:56:47;13.00;99.90
30174;DHT22;16985;50.814;8.530;2022-10-16T00:59:23;13.00;99.90
30174;DHT22;16985;50.814;8.530;2022-10-16T01:01:51;13.00;99.90
30174;DHT22;16985;50.814;8.530;2022-10-16T01:04:18;13.00;99.90
30174;DHT22;16985;50.814;8.530;2022-10-16T01:09:46;13.10;99.90
30174;DHT22;16985;50.814;8.530;2022-10-16T01:18:18;13.10;99.90
30174;DHT22;16985;50.814;8.530;2022-10-16T01:21:17;13.20;99.90
30174;DHT22;16985;50.814;8.530;2022-10-16T01:29:31;13.20;99.90
30174;DHT22;16985;50.814;8.530;2022-10-16T01:38:07;13.20;99.90
30174;DHT22;16985;50.814;8.530;2022-10-16T01:40:47;13.30;99.90
30174;DHT22;16985;50.814;8.530;2022-10-16T01:43:25;13.30;99.90
30174;DHT22;16985;50.814;8.530;2022-10-16T01:45:55;13.30;99.90
30174;DHT22;16985;50.814;8.530;2022-10-16T01:48:23;13.40;99.90
30174;DHT22;16985;50.814;8.530;2022-10-16T01:51:12;13.40;99.90
30174;DHT22;16985;50.814;8.530;2022-10-16T01:53:45;13.40;99.90
30174;DHT22;16985;50.814;8.530;2022-10-16T01:56:17;13.40;99.90
30174;DHT22;16985;50.814;8.530;2022-10-16T01:58:58;13.50;99.90
30174;DHT22;16985;50.814;8.530;2022-10-16T02:01:40;13.40;99.90
30174;DHT22;16985;50.814;8.530;2022-10-16T02:04:34;13.40;99.90
30174;DHT22;16985;50.814;8.530;2022-10-16T02:07:06;13.50;99.90
30174;DHT22;16985;50.814;8.530;2022-10-16T02:09:34;13.40;99.90
30174;DHT22;16985;50.814;8.530;2022-10-16T02:12:25;13.40;99.90
30174;DHT22;16985;50.814;8.530;2022-10-16T02:14:59;13.40;99.90
30174;DHT22;16985;50.814;8.530;2022-10-16T02:17:29;13.40;99.90
30174;DHT22;16985;50.814;8.530;2022-10-16T02:19:56;13.40;99.90
30174;DHT22;16985;50.814;8.530;2022-10-16T02:22:46;13.40;99.90
30174;DHT22;16985;50.814;8.530;2022-10-16T02:25:28;13.40;99.90
30174;DHT22;16985;50.814;8.530;2022-10-16T02:28:24;13.40;99.90
30174;DHT22;16985;50.814;8.530;2022-10-16T02:31:06;13.40;99.90
30174;DHT22;16985;50.814;8.530;2022-10-16T02:33:35;13.40;99.90
30174;DHT22;16985;50.814;8.530;2022-10-16T02:36:04;13.50;99.90
30174;DHT22;16985;50.814;8.530;2022-10-16T02:38:31;13.40;99.90
30174;DHT22;16985;50.814;8.530;2022-10-16T02:40:57;13.50;99.90
30174;DHT22;16985;50.814;8.530;2022-10-16T02:43:25;13.50;99.90
30174;DHT22;16985;50.814;8.530;2022-10-16T02:45:51;13.40;99.90
30174;DHT22;16985;50.814;8.530;2022-10-16T02:48:20;13.50;99.90
30174;DHT22;16985;50.814;8.530;2022-10-16T02:50:46;13.50;99.90
30174;DHT22;16985;50.814;8.530;2022-10-16T02:53:12;13.50;99.90
30174;DHT22;16985;50.814;8.530;2022-10-16T02:55:38;13.50;99.90
30174;DHT22;16985;50.814;8.530;2022-10-16T02:58:04;13.50;99.90
30174;DHT22;16985;50.814;8.530;2022-10-16T03:00:30;13.50;99.90
30174;DHT22;16985;50.814;8.530;2022-10-16T03:02:56;13.50;99.90
30174;DHT22;16985;50.814;8.530;2022-10-16T03:05:26;13.50;99.90
30174;DHT22;16985;50.814;8.530;2022-10-16T03:07:52;13.50;99.90
30174;DHT22;16985;50.814;8.530;2022-10-16T03:10:18;13.50;99.90
30174;DHT22;16985;50.814;8.530;2022-10-16T03:12:44;13.50;99.90
30174;DHT22;16985;50.814;8.530;2022-10-16T03:15:10;13.50;99.90
30174;DHT22;16985;50.814;8.530;2022-10-16T03:17:36;13.50;99.90
30174;DHT22;16985;50.814;8.530;2022-10-16T03:20:06;13.50;99.90
30174;DHT22;16985;50.814;8.530;2022-10-16T03:22:32;13.50;99.90
30174;DHT22;16985;50.814;8.530;2022-10-16T03:24:58;13.50;99.90
30174;DHT22;16985;50.814;8.530;2022-10-16T03:27:24;13.50;99.90
30174;DHT22;16985;50.814;8.530;2022-10-16T03:29:50;13.50;99.90
30174;DHT22;16985;50.814;8.530;2022-10-16T03:32:16;13.50;99.90
30174;DHT22;16985;50.814;8.530;2022-10-16T03:34:45;13.50;99.90
30174;DHT22;16985;50.814;8.530;2022-10-16T03:37:11;13.50;99.90
30174;DHT22;16985;50.814;8.530;2022-10-16T03:39:37;13.50;99.90
30174;DHT22;16985;50.814;8.530;2022-10-16T03:42:03;13.50;99.90
30174;DHT22;16985;50.814;8.530;2022-10-16T03:44:29;13.50;99.90
30174;DHT22;16985;50.814;8.530;2022-10-16T03:46:58;13.50;99.90
30174;DHT22;16985;50.814;8.530;2022-10-16T03:49:25;13.50;99.90
30174;DHT22;16985;50.814;8.530;2022-10-16T03:51:54;13.50;99.90
30174;DHT22;16985;50.814;8.530;2022-10-16T03:54:20;13.50;99.90
30174;DHT22;16985;50.814;8.530;2022-10-16T03:56:47;13.50;99.90
30174;DHT22;16985;50.814;8.530;2022-10-16T03:59:15;13.50;99.90
30174;DHT22;16985;50.814;8.530;2022-10-16T04:01:43;13.50;99.90
30174;DHT22;16985;50.814;8.530;2022-10-16T04:04:08;13.50;99.90
30174;DHT22;16985;50.814;8.530;2022-10-16T04:06:34;13.40;99.90
30174;DHT22;16985;50.814;8.530;2022-10-16T04:09:03;13.50;99.90
30174;DHT22;16985;50.814;8.530;2022-10-16T04:11:29;13.40;99.90
30174;DHT22;16985;50.814;8.530;2022-10-16T04:13:56;13.50;99.90
30174;DHT22;16985;50.814;8.530;2022-10-16T04:16:23;13.40;99.90
30174;DHT22;16985;50.814;8.530;2022-10-16T04:18:49;13.40;99.90
30174;DHT22;16985;50.814;8.530;2022-10-16T04:21:15;13.40;99.90
30174;DHT22;16985;50.814;8.530;2022-10-16T04:23:42;13.40;99.90
30174;DHT22;16985;50.814;8.530;2022-10-16T04:26:11;13.40;99.90
30174;DHT22;16985;50.814;8.530;2022-10-16T04:28:38;13.40;99.90
30174;DHT22;16985;50.814;8.530;2022-10-16T04:31:04;13.40;99.90
30174;DHT22;16985;50.814;8.530;2022-10-16T04:33:31;13.40;99.90
30174;DHT22;16985;50.814;8.530;2022-10-16T04:35:57;13.40;99.90
30174;DHT22;16985;50.814;8.530;2022-10-16T04:38:25;13.40;99.90
30174;DHT22;16985;50.814;8.530;2022-10-16T04:40:52;13.70;99.90
30174;DHT22;16985;50.814;8.530;2022-10-16T04:43:19;13.40;99.90
30174;DHT22;16985;50.814;8.530;2022-10-16T04:45:45;13.40;99.90
30174;DHT22;16985;50.814;8.530;2022-10-16T04:48:11;13.40;99.90
30174;DHT22;16985;50.814;8.530;2022-10-16T04:50:37;13.40;99.90
30174;DHT22;16985;50.814;8.530;2022-10-16T04:53:06;13.40;99.90
30174;DHT22;16985;50.814;8.530;2022-10-16T04:55:34;13.40;99.90
30174;DHT22;16985;50.814;8.530;2022-10-16T04:57:59;13.40;99.90
30174;DHT22;16985;50.814;8.530;2022-10-16T05:00:25;13.40;99.90
30174;DHT22;16985;50.814;8.530;2022-10-16T05:02:51;13.40;99.90
30174;DHT22;16985;50.814;8.530;2022-10-16T05:05:17;13.40;99.90
30174;DHT22;16985;50.814;8.530;2022-10-16T05:07:46;13.40;99.90
30174;DHT22;16985;50.814;8.530;2022-10-16T05:10:12;13.40;99.90
30174;DHT22;16985;50.814;8.530;2022-10-16T05:12:39;13.40;99.90
30174;DHT22;16985;50.814;8.530;2022-10-16T05:15:05;13.40;99.90
30174;DHT22;16985;50.814;8.530;2022-10-16T05:17:31;13.40;99.90
30174;DHT22;16985;50.814;8.530;2022-10-16T05:19:57;13.40;99.90
30174;DHT22;16985;50.814;8.530;2022-10-16T05:22:23;13.40;99.90
30174;DHT22;16985;50.814;8.530;2022-10-16T05:24:49;13.30;99.90
30174;DHT22;16985;50.814;8.530;2022-10-16T05:27:16;13.30;99.90
30174;DHT22;16985;50.814;8.530;2022-10-16T05:29:46;13.30;99.90
30174;DHT22;16985;50.814;8.530;2022-10-16T05:32:17;13.30;99.90
30174;DHT22;16985;50.814;8.530;2022-10-16T05:34:44;13.30;99.90
30174;DHT22;16985;50.814;8.530;2022-10-16T05:37:11;13.30;99.90
30174;DHT22;16985;50.814;8.530;2022-10-16T05:39:38;13.30;99.90
30174;DHT22;16985;50.814;8.530;2022-10-16T05:42:05;13.30;99.90
30174;DHT22;16985;50.814;8.530;2022-10-16T05:44:31;13.30;99.90
30174;DHT22;16985;50.814;8.530;2022-10-16T05:46:57;13.20;99.90
30174;DHT22;16985;50.814;8.530;2022-10-16T05:49:26;13.20;99.90
30174;DHT22;16985;50.814;8.530;2022-10-16T05:51:52;13.20;99.90
30174;DHT22;16985;50.814;8.530;2022-10-16T05:54:18;13.20;99.90
30174;DHT22;16985;50.814;8.530;2022-10-16T05:56:44;13.20;99.90
30174;DHT22;16985;50.814;8.530;2022-10-16T05:59:10;13.20;99.90
30174;DHT22;16985;50.814;8.530;2022-10-16T06:01:36;13.20;99.90
30174;DHT22;16985;50.814;8.530;2022-10-16T06:04:02;13.10;99.90
30174;DHT22;16985;50.814;8.530;2022-10-16T06:06:28;13.10;99.90
30174;DHT22;16985;50.814;8.530;2022-10-16T06:08:57;13.10;99.90
30174;DHT22;16985;50.814;8.530;2022-10-16T06:11:25;13.10;99.90
30174;DHT22;16985;50.814;8.530;2022-10-16T06:13:55;13.10;99.90
30174;DHT22;16985;50.814;8.530;2022-10-16T06:16:24;13.10;99.90
30174;DHT22;16985;50.814;8.530;2022-10-16T06:18:51;13.10;99.90
30174;DHT22;16985;50.814;8.530;2022-10-16T06:21:20;13.10;99.90
30174;DHT22;16985;50.814;8.530;2022-10-16T06:23:48;13.00;99.90
30174;DHT22;16985;50.814;8.530;2022-10-16T06:26:19;13.00;99.90
30174;DHT22;16985;50.814;8.530;2022-10-16T06:28:46;12.90;99.90
30174;DHT22;16985;50.814;8.530;2022-10-16T06:31:13;12.90;99.90
30174;DHT22;16985;50.814;8.530;2022-10-16T06:33:40;13.00;99.90
30174;DHT22;16985;50.814;8.530;2022-10-16T06:36:08;12.90;99.90
30174;DHT22;16985;50.814;8.530;2022-10-16T06:38:39;12.90;99.90
30174;DHT22;16985;50.814;8.530;2022-10-16T06:41:07;12.90;99.90
30174;DHT22;16985;50.814;8.530;2022-10-16T06:43:37;12.90;99.90
30174;DHT22;16985;50.814;8.530;2022-10-16T06:46:04;13.10;99.90
30174;DHT22;16985;50.814;8.530;2022-10-16T06:48:33;12.80;99.90
30174;DHT22;16985;50.814;8.530;2022-10-16T06:51:01;12.90;99.90
30174;DHT22;16985;50.814;8.530;2022-10-16T06:53:34;12.90;99.90
30174;DHT22;16985;50.814;8.530;2022-10-16T06:56:33;12.90;99.90
30174;DHT22;16985;50.814;8.530;2022-10-16T06:59:01;12.90;99.90
30174;DHT22;16985;50.814;8.530;2022-10-16T07:01:28;12.90;99.90
30174;DHT22;16985;50.814;8.530;2022-10-16T07:03:55;12.90;99.90
30174;DHT22;16985;50.814;8.530;2022-10-16T07:06:23;13.00;99.90
30174;DHT22;16985;50.814;8.530;2022-10-16T07:08:50;13.00;99.90
30174;DHT22;16985;50.814;8.530;2022-10-16T07:11:22;13.00;99.90
30174;DHT22;16985;50.814;8.530;2022-10-16T07:13:49;13.00;99.90
30174;DHT22;16985;50.814;8.530;2022-10-16T07:16:18;13.00;99.90
30174;DHT22;16985;50.814;8.530;2022-10-16T07:18:48;13.00;99.90
30174;DHT22;16985;50.814;8.530;2022-10-16T07:21:19;13.10;99.90
30174;DHT22;16985;50.814;8.530;2022-10-16T07:23:55;13.10;99.90
30174;DHT22;16985;50.814;8.530;2022-10-16T07:26:23;13.10;99.90
30174;DHT22;16985;50.814;8.530;2022-10-16T07:28:50;13.10;99.90
30174;DHT22;16985;50.814;8.530;2022-10-16T07:31:17;13.10;99.90
30174;DHT22;16985;50.814;8.530;2022-10-16T07:33:46;13.20;99.90
30174;DHT22;16985;50.814;8.530;2022-10-16T07:36:13;13.20;99.90
30174;DHT22;16985;50.814;8.530;2022-10-16T07:38:40;13.20;99.90
30174;DHT22;16985;50.814;8.530;2022-10-16T07:41:11;13.20;99.90
30174;DHT22;16985;50.814;8.530;2022-10-16T07:43:38;13.20;99.90
30174;DHT22;16985;50.814;8.530;2022-10-16T07:46:05;13.20;99.90
30174;DHT22;16985;50.814;8.530;2022-10-16T07:48:32;13.30;99.90
30174;DHT22;16985;50.814;8.530;2022-10-16T07:51:00;13.30;99.90
30174;DHT22;16985;50.814;8.530;2022-10-16T07:53:29;13.40;99.90
30174;DHT22;16985;50.814;8.530;2022-10-16T07:55:58;13.40;99.90
30174;DHT22;16985;50.814;8.530;2022-10-16T07:58:25;13.90;99.90
30174;DHT22;16985;50.814;8.530;2022-10-16T08:00:52;13.40;99.90
30174;DHT22;16985;50.814;8.530;2022-10-16T08:03:21;13.50;99.90
30174;DHT22;16985;50.814;8.530;2022-10-16T08:05:47;13.50;99.90
30174;DHT22;16985;50.814;8.530;2022-10-16T08:08:14;13.50;99.90
30174;DHT22;16985;50.814;8.530;2022-10-16T08:10:41;13.50;99.90
30174;DHT22;16985;50.814;8.530;2022-10-16T08:13:07;13.60;99.90
30174;DHT22;16985;50.814;8.530;2022-10-16T08:15:35;13.60;99.90
30174;DHT22;16985;50.814;8.530;2022-10-16T08:18:03;13.60;99.90
30174;DHT22;16985;50.814;8.530;2022-10-16T08:20:32;13.70;99.90
30174;DHT22;16985;50.814;8.530;2022-10-16T08:22:59;13.70;99.90
30174;DHT22;16985;50.814;8.530;2022-10-16T08:25:28;13.70;99.90
30174;DHT22;16985;50.814;8.530;2022-10-16T08:27:54;13.80;99.90
30174;DHT22;16985;50.814;8.530;2022-10-16T08:30:22;13.80;99.90
30174;DHT22;16985;50.814;8.530;2022-10-16T08:32:49;13.80;99.90
30174;DHT22;16985;50.814;8.530;2022-10-16T08:35:15;13.90;99.90
30174;DHT22;16985;50.814;8.530;2022-10-16T08:37:41;13.90;99.90
30174;DHT22;16985;50.814;8.530;2022-10-16T08:40:24;14.00;99.90
30174;DHT22;16985;50.814;8.530;2022-10-16T08:48:57;14.10;99.90
30174;DHT22;16985;50.814;8.530;2022-10-16T08:51:26;14.20;99.90
30174;DHT22;16985;50.814;8.530;2022-10-16T08:53:57;14.20;99.90
30174;DHT22;16985;50.814;8.530;2022-10-16T08:56:41;14.30;99.90
30174;DHT22;16985;50.814;8.530;2022-10-16T08:59:10;14.30;99.90
30174;DHT22;16985;50.814;8.530;2022-10-16T09:01:47;14.40;99.90
30174;DHT22;16985;50.814;8.530;2022-10-16T09:04:47;14.50;99.90
30174;DHT22;16985;50.814;8.530;2022-10-16T09:07:46;14.60;99.90
30174;DHT22;16985;50.814;8.530;2022-10-16T09:13:09;14.70;99.90
30174;DHT22;16985;50.814;8.530;2022-10-16T09:18:40;14.70;99.90
30174;DHT22;16985;50.814;8.530;2022-10-16T09:21:25;14.80;99.90
30174;DHT22;16985;50.814;8.530;2022-10-16T09:24:17;14.80;99.90
30174;DHT22;16985;50.814;8.530;2022-10-16T09:26:48;14.80;99.90
30174;DHT22;16985;50.814;8.530;2022-10-16T09:29:16;14.90;99.90
30174;DHT22;16985;50.814;8.530;2022-10-16T09:31:46;14.90;99.90
30174;DHT22;16985;50.814;8.530;2022-10-16T09:34:32;15.00;99.90
30174;DHT22;16985;50.814;8.530;2022-10-16T09:37:05;15.10;99.90
30174;DHT22;16985;50.814;8.530;2022-10-16T09:39:49;15.20;99.90
30174;DHT22;16985;50.814;8.530;2022-10-16T09:42:31;15.40;99.90
30174;DHT22;16985;50.814;8.530;2022-10-16T09:44:59;15.50;99.90
30174;DHT22;16985;50.814;8.530;2022-10-16T09:47:26;15.90;99.90
30174;DHT22;16985;50.814;8.530;2022-10-16T09:50:02;15.70;99.90
30174;DHT22;16985;50.814;8.530;2022-10-16T09:52:31;15.80;99.90
30174;DHT22;16985;50.814;8.530;2022-10-16T09:55:00;15.90;99.90
30174;DHT22;16985;50.814;8.530;2022-10-16T09:57:51;15.90;99.90
30174;DHT22;16985;50.814;8.530;2022-10-16T10:00:19;16.10;99.90
30174;DHT22;16985;50.814;8.530;2022-10-16T10:02:48;16.10;99.90
30174;DHT22;16985;50.814;8.530;2022-10-16T10:07:54;16.20;99.90
30174;DHT22;16985;50.814;8.530;2022-10-16T10:10:28;16.30;99.90
30174;DHT22;16985;50.814;8.530;2022-10-16T10:12:57;16.30;99.90
30174;DHT22;16985;50.814;8.530;2022-10-16T10:15:24;16.30;99.90
30174;DHT22;16985;50.814;8.530;2022-10-16T10:17:54;16.40;99.90
30174;DHT22;16985;50.814;8.530;2022-10-16T10:20:35;16.40;99.90
30174;DHT22;16985;50.814;8.530;2022-10-16T10:23:21;16.50;99.90
30174;DHT22;16985;50.814;8.530;2022-10-16T10:28:55;16.60;99.90
30174;DHT22;16985;50.814;8.530;2022-10-16T10:31:58;16.60;99.90
30174;DHT22;16985;50.814;8.530;2022-10-16T10:34:44;16.60;99.90
30174;DHT22;16985;50.814;8.530;2022-10-16T10:37:47;16.60;99.90
30174;DHT22;16985;50.814;8.530;2022-10-16T10:40:39;16.60;99.90
30174;DHT22;16985;50.814;8.530;2022-10-16T10:47:04;16.70;99.90
30174;DHT22;16985;50.814;8.530;2022-10-16T10:49:40;17.00;99.90
30174;DHT22;16985;50.814;8.530;2022-10-16T10:52:42;17.10;99.90
30174;DHT22;16985;50.814;8.530;2022-10-16T10:55:39;17.40;99.90
30174;DHT22;16985;50.814;8.530;2022-10-16T11:01:56;17.90;99.90
30174;DHT22;16985;50.814;8.530;2022-10-16T11:05:00;18.10;99.90
30174;DHT22;16985;50.814;8.530;2022-10-16T11:07:55;18.20;99.90
30174;DHT22;16985;50.814;8.530;2022-10-16T11:10:27;18.40;99.90
30174;DHT22;16985;50.814;8.530;2022-10-16T11:13:33;18.60;99.90
30174;DHT22;16985;50.814;8.530;2022-10-16T11:16:27;18.70;99.90
30174;DHT22;16985;50.814;8.530;2022-10-16T11:19:08;18.90;99.90
30174;DHT22;16985;50.814;8.530;2022-10-16T11:22:01;19.00;99.90
30174;DHT22;16985;50.814;8.530;2022-10-16T11:24:45;19.20;99.90
30174;DHT22;16985;50.814;8.530;2022-10-16T11:28:45;19.30;99.90
30174;DHT22;16985;50.814;8.530;2022-10-16T11:31:37;19.60;99.90
30174;DHT22;16985;50.814;8.530;2022-10-16T11:36:59;19.80;99.10
30174;DHT22;16985;50.814;8.530;2022-10-16T11:39:31;20.00;98.70
30174;DHT22;16985;50.814;8.530;2022-10-16T11:42:11;20.10;98.00
30174;DHT22;16985;50.814;8.530;2022-10-16T11:47:44;20.30;94.40
30174;DHT22;16985;50.814;8.530;2022-10-16T11:50:37;20.40;94.00
30174;DHT22;16985;50.814;8.530;2022-10-16T11:53:34;20.40;93.40
30174;DHT22;16985;50.814;8.530;2022-10-16T11:56:07;20.50;94.60
30174;DHT22;16985;50.814;8.530;2022-10-16T12:01:51;20.70;95.00
30174;DHT22;16985;50.814;8.530;2022-10-16T12:04:26;20.70;95.00
30174;DHT22;16985;50.814;8.530;2022-10-16T12:07:08;20.80;94.50
30174;DHT22;16985;50.814;8.530;2022-10-16T12:09:38;20.90;93.70
30174;DHT22;16985;50.814;8.530;2022-10-16T12:12:28;20.90;92.30
30174;DHT22;16985;50.814;8.530;2022-10-16T12:15:29;21.00;92.10
30174;DHT22;16985;50.814;8.530;2022-10-16T12:17:59;20.90;91.20
30174;DHT22;16985;50.814;8.530;2022-10-16T12:20:32;21.00;91.80
30174;DHT22;16985;50.814;8.530;2022-10-16T12:23:02;21.10;91.20
30174;DHT22;16985;50.814;8.530;2022-10-16T12:25:32;21.20;90.60
30174;DHT22;16985;50.814;8.530;2022-10-16T12:28:20;21.30;90.40
30174;DHT22;16985;50.814;8.530;2022-10-16T12:30:55;21.40;89.40
30174;DHT22;16985;50.814;8.530;2022-10-16T12:33:28;21.40;88.50
30174;DHT22;16985;50.814;8.530;2022-10-16T12:35:56;21.50;89.60
30174;DHT22;16985;50.814;8.530;2022-10-16T12:41:28;21.60;87.30
30174;DHT22;16985;50.814;8.530;2022-10-16T12:43:56;21.60;86.50
30174;DHT22;16985;50.814;8.530;2022-10-16T12:46:33;21.60;84.30
30174;DHT22;16985;50.814;8.530;2022-10-16T12:51:53;21.40;81.30
30174;DHT22;16985;50.814;8.530;2022-10-16T12:54:37;21.30;82.30
30174;DHT22;16985;50.814;8.530;2022-10-16T13:03:16;21.40;85.70
30174;DHT22;16985;50.814;8.530;2022-10-16T13:05:46;21.40;85.70
30174;DHT22;16985;50.814;8.530;2022-10-16T13:14:55;21.50;85.30
30174;DHT22;16985;50.814;8.530;2022-10-16T13:24:00;21.70;87.60
30174;DHT22;16985;50.814;8.530;2022-10-16T13:26:57;21.80;88.20
30174;DHT22;16985;50.814;8.530;2022-10-16T13:29:29;21.80;88.60
30174;DHT22;16985;50.814;8.530;2022-10-16T13:31:56;22.00;88.30
30174;DHT22;16985;50.814;8.530;2022-10-16T13:34:23;22.00;86.50
30174;DHT22;16985;50.814;8.530;2022-10-16T13:36:51;22.10;85.40
30174;DHT22;16985;50.814;8.530;2022-10-16T13:39:29;22.20;83.90
30174;DHT22;16985;50.814;8.530;2022-10-16T13:42:05;22.30;83.30
30174;DHT22;16985;50.814;8.530;2022-10-16T13:44:50;22.30;82.40
30174;DHT22;16985;50.814;8.530;2022-10-16T13:47:24;22.40;80.70
30174;DHT22;16985;50.814;8.530;2022-10-16T13:50:08;22.40;80.50
30174;DHT22;16985;50.814;8.530;2022-10-16T13:52:40;22.30;81.50
30174;DHT22;16985;50.814;8.530;2022-10-16T13:55:14;22.30;80.90
30174;DHT22;16985;50.814;8.530;2022-10-16T13:57:42;22.40;81.60
30174;DHT22;16985;50.814;8.530;2022-10-16T14:00:23;22.40;81.40
30174;DHT22;16985;50.814;8.530;2022-10-16T14:03:11;22.40;80.90
30174;DHT22;16985;50.814;8.530;2022-10-16T14:08:18;22.20;79.70
30174;DHT22;16985;50.814;8.530;2022-10-16T14:10:49;22.10;80.50
30174;DHT22;16985;50.814;8.530;2022-10-16T14:13:26;22.00;81.50
30174;DHT22;16985;50.814;8.530;2022-10-16T14:15:53;21.90;82.10
30174;DHT22;16985;50.814;8.530;2022-10-16T14:18:22;21.80;81.20
30174;DHT22;16985;50.814;8.530;2022-10-16T14:20:50;21.70;82.10
30174;DHT22;16985;50.814;8.530;2022-10-16T14:23:31;21.60;81.50
30174;DHT22;16985;50.814;8.530;2022-10-16T14:28:36;21.40;80.30
30174;DHT22;16985;50.814;8.530;2022-10-16T14:31:24;21.30;80.40
30174;DHT22;16985;50.814;8.530;2022-10-16T14:33:51;21.20;80.60
30174;DHT22;16985;50.814;8.530;2022-10-16T14:36:18;21.10;81.10
30174;DHT22;16985;50.814;8.530;2022-10-16T14:38:56;20.90;82.00
30174;DHT22;16985;50.814;8.530;2022-10-16T14:41:26;20.90;82.80
30174;DHT22;16985;50.814;8.530;2022-10-16T14:43:54;20.80;83.30
30174;DHT22;16985;50.814;8.530;2022-10-16T14:46:30;20.70;83.80
30174;DHT22;16985;50.814;8.530;2022-10-16T14:49:25;20.70;84.20
30174;DHT22;16985;50.814;8.530;2022-10-16T14:51:51;20.60;85.00
30174;DHT22;16985;50.814;8.530;2022-10-16T14:54:19;20.50;86.10
30174;DHT22;16985;50.814;8.530;2022-10-16T14:59:40;20.50;87.10
30174;DHT22;16985;50.814;8.530;2022-10-16T15:02:19;20.50;87.10
30174;DHT22;16985;50.814;8.530;2022-10-16T15:04:47;20.40;87.50
30174;DHT22;16985;50.814;8.530;2022-10-16T15:07:13;20.30;87.40
30174;DHT22;16985;50.814;8.530;2022-10-16T15:09:38;20.30;87.50
30174;DHT22;16985;50.814;8.530;2022-10-16T15:12:04;20.10;87.70
30174;DHT22;16985;50.814;8.530;2022-10-16T15:14:30;20.00;88.30
30174;DHT22;16985;50.814;8.530;2022-10-16T15:16:56;20.00;89.30
30174;DHT22;16985;50.814;8.530;2022-10-16T15:19:22;19.90;89.50
30174;DHT22;16985;50.814;8.530;2022-10-16T15:21:48;19.80;90.10
30174;DHT22;16985;50.814;8.530;2022-10-16T15:24:14;19.70;90.20
30174;DHT22;16985;50.814;8.530;2022-10-16T15:26:41;19.70;90.60
30174;DHT22;16985;50.814;8.530;2022-10-16T15:29:07;19.50;91.00
30174;DHT22;16985;50.814;8.530;2022-10-16T15:31:33;19.50;91.30
30174;DHT22;16985;50.814;8.530;2022-10-16T15:33:59;19.50;91.70
30174;DHT22;16985;50.814;8.530;2022-10-16T15:36:34;19.30;91.90
30174;DHT22;16985;50.814;8.530;2022-10-16T15:39:16;19.30;92.40
30174;DHT22;16985;50.814;8.530;2022-10-16T15:41:44;19.20;92.80
30174;DHT22;16985;50.814;8.530;2022-10-16T15:44:18;19.20;93.20
30174;DHT22;16985;50.814;8.530;2022-10-16T15:46:45;19.10;93.50
30174;DHT22;16985;50.814;8.530;2022-10-16T15:49:11;18.90;93.90
30174;DHT22;16985;50.814;8.530;2022-10-16T15:51:41;18.90;94.40
30174;DHT22;16985;50.814;8.530;2022-10-16T15:54:11;19.00;94.70
30174;DHT22;16985;50.814;8.530;2022-10-16T15:56:36;18.90;95.10
30174;DHT22;16985;50.814;8.530;2022-10-16T15:59:05;18.90;95.60
30174;DHT22;16985;50.814;8.530;2022-10-16T16:01:33;18.80;96.00
30174;DHT22;16985;50.814;8.530;2022-10-16T16:03:59;18.70;96.60
30174;DHT22;16985;50.814;8.530;2022-10-16T16:06:25;18.70;96.80
30174;DHT22;16985;50.814;8.530;2022-10-16T16:08:52;18.60;97.00
30174;DHT22;16985;50.814;8.530;2022-10-16T16:11:19;18.60;97.90
30174;DHT22;16985;50.814;8.530;2022-10-16T16:13:45;18.50;98.50
30174;DHT22;16985;50.814;8.530;2022-10-16T16:16:13;18.50;99.00
30174;DHT22;16985;50.814;8.530;2022-10-16T16:18:41;18.40;99.80
30174;DHT22;16985;50.814;8.530;2022-10-16T16:21:08;18.40;99.90
30174;DHT22;16985;50.814;8.530;2022-10-16T16:23:35;18.30;99.90
30174;DHT22;16985;50.814;8.530;2022-10-16T16:26:09;18.30;99.90
30174;DHT22;16985;50.814;8.530;2022-10-16T16:28:38;18.20;99.90
30174;DHT22;16985;50.814;8.530;2022-10-16T16:31:04;18.10;99.90
30174;DHT22;16985;50.814;8.530;2022-10-16T16:33:30;18.10;99.90
30174;DHT22;16985;50.814;8.530;2022-10-16T16:35:58;18.00;99.90
30174;DHT22;16985;50.814;8.530;2022-10-16T16:38:25;18.00;99.90
30174;DHT22;16985;50.814;8.530;2022-10-16T16:40:51;17.90;99.90
30174;DHT22;16985;50.814;8.530;2022-10-16T16:43:18;17.90;99.90
30174;DHT22;16985;50.814;8.530;2022-10-16T16:45:44;17.80;99.90
30174;DHT22;16985;50.814;8.530;2022-10-16T16:48:10;17.70;99.90
30174;DHT22;16985;50.814;8.530;2022-10-16T16:50:38;17.60;99.90
30174;DHT22;16985;50.814;8.530;2022-10-16T16:53:04;17.60;99.90
30174;DHT22;16985;50.814;8.530;2022-10-16T16:55:30;17.40;99.90
30174;DHT22;16985;50.814;8.530;2022-10-16T16:57:56;17.40;99.90
30174;DHT22;16985;50.814;8.530;2022-10-16T17:00:24;17.30;99.90
30174;DHT22;16985;50.814;8.530;2022-10-16T17:02:50;17.30;99.90
30174;DHT22;16985;50.814;8.530;2022-10-16T17:05:17;17.20;99.90
30174;DHT22;16985;50.814;8.530;2022-10-16T17:07:43;17.20;99.90
30174;DHT22;16985;50.814;8.530;2022-10-16T17:10:09;17.10;99.90
30174;DHT22;16985;50.814;8.530;2022-10-16T17:12:35;17.00;99.90
30174;DHT22;16985;50.814;8.530;2022-10-16T17:15:01;17.00;99.90
30174;DHT22;16985;50.814;8.530;2022-10-16T17:17:27;17.00;99.90
30174;DHT22;16985;50.814;8.530;2022-10-16T17:19:53;17.00;99.90
30174;DHT22;16985;50.814;8.530;2022-10-16T17:22:19;16.90;99.90
30174;DHT22;16985;50.814;8.530;2022-10-16T17:24:48;16.90;99.90
30174;DHT22;16985;50.814;8.530;2022-10-16T17:27:17;16.90;99.90